NWS Home NWS Lubbock West Texas Mesonet                      Daily Summary For 04/17/2021

Latest   N   C   S   Daily Sum   3hrΔ   24hrΔ   Soil Data 
Site Map   24hr Precip   72hr Precip   Google Plot


Station Time of Last Max Temp Min Temp Max/Min Dew Pt. Max/Min RH 10m Avg Wind 2m Avg Wind Peak Gust @ 33ft (mph) Potential Evapotranspiration
mm/day or in/day
Rain Sum Solar Rad
MJ/m^2
% Clear Day Red Flag
Abernathy 5ENE 11:59 PM 79 36 57 /28 68 / 47 12.4  (NE) 10 30.7 mph 15° @ 1115 AM 2 or 0.08 0.00 18.5 136.3 0
Adrian 6WSW 11:59 PM 79 36 57 /28 68 / 47 11.3  (NE) 9 24.3 mph 19° @ 0155 AM 1.5 or 0.06 0.00 12.3 94.7 0
Aiken 3WSW 11:59 PM 79 36 57 /28 68 / 47 12.9  (N) 9.3 24.3 mph 9° @ 1020 AM 1.8 or 0.07 0.00 18.9 140.3 0
Amarillo 15NNW 11:59 PM 79 36 57 /28 68 / 47 10.6  (NW) 8 24.3 mph 0° @ 0955 AM 1.5 or 0.06 0.00 12.1 94.5 0
Amarillo 7SSE 11:59 PM 79 36 57 /28 68 / 47 12  (N) 8.9 28.1 mph 357° @ 0106 PM 1.8 or 0.07 0.00 15.2 117 0
Amarillo 9NNE 11:59 PM 79 36 57 /28 68 / 47 10.6  (N) 8.5 27 mph 6° @ 1005 AM 1.5 or 0.06 0.00 15.4 119.9 0
Amherst 1NE 11:59 PM 79 36 57 /28 68 / 47 11.5  (N) 8.5 29.6 mph 19° @ 1242 PM 2 or 0.08 0.00 79.8 589.3 0
Andrews 2E 11:59 PM 79 36 57 /28 68 / 47 8.7  (NE) 4.7 31.8 mph 32° @ 1223 AM 1.3 or 0.05 0.06 6 42 0
Anton 6SSW 11:55 PM 79 36 57 /28 68 / 47 12.8  (N) 10.4 25.9 mph 9° @ 0230 AM 2 or 0.08 0.00 20.2 147.9 0
Aspermont 3NE 11:59 PM 79 36 57 /28 68 / 47 8.7  (N) 5.9 26.3 mph 341° @ 0113 PM 1.5 or 0.06 0.00 15.1 109.7 0
Big Bend NP - Castolon 11:59 PM 79 36 57 /28 68 / 47 12.2  (NW) 9.4 27 mph 8° @ 0803 PM 3.8 or 0.15 0.00 17.1 109.1 0
Big Bend NP - Persimmon Gap 11:59 PM 79 36 57 /28 68 / 47 22.1  (NE) 18.5 42.5 mph 37° @ 1226 AM 3.6 or 0.14 0.00 13.4 86.7 0
Big Lake 1WNW 11:59 PM 79 36 57 /28 68 / 47 12.4  (NE) 9.9 31.7 mph 19° @ 0239 AM 2.3 or 0.09 0.00 15.4 104.4 0
Bootleg 11WNW 11:59 PM 79 36 57 /28 68 / 47 11.7  (N) 8.9 26.1 mph 13° @ 0636 AM 1.8 or 0.07 0.00 14.9 112.5 0
Borger 7E 11:59 PM 79 36 57 /28 68 / 47 12.8  (NW) 9.9 31.8 mph 352° @ 1139 AM 1.8 or 0.07 0.00 17.1 134.3 0
Boys Ranch 1WSW 11:59 PM 79 36 57 /28 68 / 47 8  (N) 6.4 22.2 mph 28° @ 1257 PM 1.5 or 0.06 0.00 12.1 94.4 0
Brownfield 2S 11:59 PM 79 36 57 /28 68 / 47 10.7  (NE) 8.5 27.4 mph 24° @ 1235 AM 2 or 0.08 0.00 15.1 108.5 0
Canadian 6E 11:59 PM 79 36 57 /28 68 / 47 11.7  (NW) 8.3 28.3 mph 6° @ 0153 PM 1.3 or 0.05 0.00 13.7 109.5 0
Caprock Canyons State Park 11:59 PM 79 36 57 /28 68 / 47 9.8  (N) 6.4 25.3 mph 19° @ 0730 AM 1.8 or 0.07 0.00 20 150.8 0
Childress 2NNE 11:55 PM 79 36 57 /28 68 / 47 11.1  (N) 7.8 29 mph 351° @ 1005 AM 1.8 or 0.07 0.00 18.1 138 0
Clarendon 2WSW 11:55 PM 79 36 57 /28 68 / 47 13.1  (N) 9.8 32.3 mph 12° @ 0215 PM 1.8 or 0.07 0.00 18.5 142 0
Claude 12SW 11:59 PM 79 36 57 /28 68 / 47 12.1  (N) 8.6 26.4 mph 348° @ 0221 AM 1.8 or 0.07 0.00 16.2 124 0
Clyde 2WNW 11:59 PM 79 36 57 /28 68 / 47 11.7  (N) 8.5 31 mph 16° @ 1255 AM 1.5 or 0.06 0.00 11.5 81.6 0
Colorado City 5NW 11:59 PM 79 36 57 /28 68 / 47 9.6  (N) 6.4 29.8 mph 19° @ 1247 AM 1.5 or 0.06 0.00 7.3 51.9 0
Comanche Springs 11:59 PM 79 36 57 /28 68 / 47 8.5  (N) 6.4 27.4 mph 3° @ 1000 AM 1.5 or 0.06 0.00 18.2 136.2 0
Coyanosa 2N 11:59 PM 79 36 57 /28 68 / 47 9.2  (E) 6.2 21.9 mph 22° @ 0359 PM 1.8 or 0.07 0.00 14.7 100.1 0
Crane 1NNW 11:59 PM 79 36 57 /28 68 / 47 10.8  (NE) 9 29.7 mph 9° @ 0313 PM 2 or 0.08 0.00 15.3 104.8 0
Crowell 1E 11:59 PM 79 36 57 /28 68 / 47 10.4  (N) 8.2 25.3 mph 3° @ 1119 AM 1.8 or 0.07 0.00 16.4 123 0
Dell City 11:59 PM 79 36 57 /28 68 / 47 9.2  (NE) 6.8 35.4 mph 45° @ 1206 AM 2 or 0.08 0.00 15.9 109.4 0
Denver City 7WNW 11:55 PM 79 36 57 /28 68 / 47 9.7  (NE) 7.2 21.7 mph 29° @ 1225 AM 1.8 or 0.07 0.00 14.7 104.6 0
Dimmitt 2NE 11:55 PM 79 36 57 /28 68 / 47 14.3  (N) 11.1 30.5 mph 3° @ 0345 PM 1.8 or 0.07 0.00 18.1 136.3 0
Doole 3WNW 11:59 PM 79 36 57 /28 68 / 47 10.2  (N) 8.4 25.5 mph 351° @ 0214 AM 1.5 or 0.06 0.07 7.9 54.5 0
Dora NM 2SW 11:55 PM 79 36 57 /28 68 / 47 11.5  (NE) 8.7 22.7 mph 44° @ 0155 AM 2 or 0.08 0.00 18.4 134.7 0
Dozier 3W 11:59 PM 79 36 57 /28 68 / 47 11  (NW) 7.5 30.6 mph 356° @ 1028 AM 1.5 or 0.06 0.00 19 147.6 0
Earth 9WSW 11:59 PM 79 36 57 /28 68 / 47 11.5  (N) 9.6 24.9 mph 13° @ 1057 AM 1.8 or 0.07 0.00 21.2 157.2 0
Endee NM 2SW 11:59 PM 79 36 57 /28 68 / 47 10.1  (NE) 7.4 26.9 mph 31° @ 1224 AM 1.5 or 0.06 0.00 14.4 110 0
Estelline 3SSE 11:59 PM 79 36 57 /28 68 / 47 10.2  (N) 7 28.9 mph 353° @ 1015 AM 1.8 or 0.07 0.00 19.4 147.7 0
Floydada 2NNE 11:55 PM 79 36 57 /28 68 / 47 12.8  (N) 9.6 24.4 mph 351° @ 1235 PM 2 or 0.08 0.00 18.4 136.5 0
Fluvanna 3WNW 11:55 PM 79 36 57 /28 68 / 47 11  (N) 8.6 34 mph 17° @ 1210 AM 1.5 or 0.06 0.00 12.3 87.8 0
Fort Chadbourne 11:59 PM 79 36 57 /28 68 / 47 8  (NE) 4.1 28.9 mph 43° @ 1214 AM 1.3 or 0.05 0.09 9.8 68.9 0
Fort Lancaster 11:59 PM 79 36 57 /28 68 / 47 8.6  (N) 5.4 23.2 mph 17° @ 0739 PM 2.3 or 0.09 0.00 15.3 102.1 0
Fort Lewis CO 11:59 PM 79 36 57 /28 68 / 47 6  (NW) 3.7 27.3 mph 309° @ 0404 PM 0.8 or 0.03 0.04 14 113 0
Fort McKavett 11:59 PM 79 36 57 /28 68 / 47 11  (NE) 8.2 30.3 mph 11° @ 1231 AM 1.8 or 0.07 0.00 12.6 84.4 0
Friona 2NE 11:55 PM 79 36 57 /28 68 / 47 13.2  (N) 10 28.4 mph 14° @ 1210 AM 1.8 or 0.07 0.00 19 142.9 0
Fritch 1WNW 11:59 PM 79 36 57 /28 68 / 47 11.8  (N) 8.7 31.8 mph 12° @ 0136 AM 1.8 or 0.07 0.00 14.4 113.2 0
Gail 2ESE 11:59 PM 79 36 57 /28 68 / 47 9  (NE) 6.1 29.6 mph 28° @ 1253 AM 1.5 or 0.06 0.00 11.2 79.9 0
Goodlett 3W 11:55 PM 79 36 57 /28 68 / 47 11.1  (N) 8.3 28.3 mph 358° @ 0940 AM 1.8 or 0.07 0.00 18.1 137.1 0
Goodnight 11:59 PM 79 36 57 /28 68 / 47 12.9  (N) 9.9 30.6 mph 351° @ 1007 AM 1.8 or 0.07 0.00 16.1 123.9 0
Graham 5SSW 11:59 PM 79 36 57 /28 68 / 47 10.7  (NE) 8.1 29.6 mph 22° @ 1231 AM 1.8 or 0.07 0.00 16.3 117 0
Guadalupe Mtns Natl Park 11:59 PM 79 36 57 /28 68 / 47 13.6  (NE) 10.2 35.1 mph 38° @ 1206 AM 1.5 or 0.06 0.00 13.7 93 0
Guthrie 10WSW 11:59 PM 79 36 57 /28 68 / 47 10.3  (N) 7.2 29.6 mph 13° @ 1120 AM 1.8 or 0.07 0.00 16.9 124.4 0
Hackberry 2SSE 11:59 PM 79 36 57 /28 68 / 47 10.5  (N) 7.8 27.1 mph 10° @ 1011 AM 1.8 or 0.07 0.00 17.7 132 0
Happy 1E 11:59 PM 79 36 57 /28 68 / 47 13  (N) 10.3 29.9 mph 13° @ 0201 AM 1.8 or 0.07 0.00 19 144.1 0
Hart 3N 11:55 PM 79 36 57 /28 68 / 47 12.8  (N) 9.8 25.2 mph 13° @ 1125 AM 1.8 or 0.07 0.00 19.2 143.8 0
Haskell 1NW 11:55 PM 79 36 57 /28 68 / 47 9.7  (N) 7.3 24 mph 6° @ 1100 AM 1.3 or 0.05 0.00 14.4 104.9 0
Hefner 1SW 11:59 PM 79 36 57 /28 68 / 47 9.6  (N) 6.2 24.6 mph 352° @ 0206 PM 1.5 or 0.06 0.00 14.5 106.8 0
Hereford 2NW 11:55 PM 79 36 57 /28 68 / 47 11  (N) 8.5 23.3 mph 11° @ 0700 AM 1.5 or 0.06 0.00 15.1 114.5 0
Hobbs NM 5NW 11:59 PM 79 36 57 /28 68 / 47 7.8  (NE) 4.6 21 mph 45° @ 1248 AM 1.8 or 0.07 0.00 12.8 90.3 0
Jayton 1SSE 11:55 PM 79 36 57 /28 68 / 47 8.7  (N) 6 23 mph 359° @ 1030 AM 1.8 or 0.07 0.00 13.4 97.8 0
Junction 1SSW 11:59 PM 79 36 57 /28 68 / 47 10.5  (N) 8.4 26.8 mph 1° @ 1025 AM 2 or 0.08 0.00 14.1 94 0
Kent 9E 11:59 PM 79 36 57 /28 68 / 47 12.6  (E) 9.2 29.4 mph 90° @ 0215 AM 2 or 0.08 0.00 17.2 115 0
Knox City 3NW 11:59 PM 79 36 57 /28 68 / 47 8.1  (N) 5.6 23 mph 354° @ 1238 PM 1.5 or 0.06 0.00 14.6 107.5 0
Lake Alan Henry 1NW 11:59 PM 79 36 57 /28 68 / 47 8.8  (NE) 5.6 23.2 mph 21° @ 1052 AM 1.5 or 0.06 0.00 13.1 95 0
Lake McClellan 2NW 11:59 PM 79 36 57 /28 68 / 47 15.5  (NW) 11.9 36.5 mph 350° @ 0446 PM 1.8 or 0.07 0.00 19.5 150.8 0
Lamesa 2SE 11:55 PM 79 36 57 /28 68 / 47 7.8  (NE) 5.4 25.1 mph 22° @ 0940 AM 1.5 or 0.06 0.00 9.6 68 0
Lesley 2S 11:59 PM 79 36 57 /28 68 / 47 11.8  (NW) 8.5 28.1 mph 354° @ 1016 AM 2 or 0.08 0.00 20.4 156.3 0
Levelland 4S 11:59 PM 79 36 57 /28 68 / 47 12.6  (NE) 10.3 28.5 mph 18° @ 0458 AM 2.3 or 0.09 0.00 20.8 151.3 0
Lomax 1SSE 11:59 PM 79 36 57 /28 68 / 47 9.9  (NE) 7.6 31.2 mph 23° @ 1228 AM 1.3 or 0.05 0.10 7.6 52.8 0
Lubbock 3WNW TTU 11:55 PM 79 36 57 /28 68 / 47 9.9  (NE) 7.8 22.5 mph 10° @ 0525 AM 1.8 or 0.07 0.00 19.1 139.2 0
McAdoo 3NNW 11:59 PM 79 36 57 /28 68 / 47 13.8  (N) 9.9 29.6 mph 11° @ 0410 AM 2 or 0.08 0.00 19 139.9 0
McCamey 1SSW 11:59 PM 79 36 57 /28 68 / 47 9.5  (E) 8.2 24.7 mph 61° @ 1206 AM 2 or 0.08 0.03 15.5 105.2 0
McLean 1E 11:55 PM 79 36 57 /28 68 / 47 14  (NW) 11.5 34.5 mph 349° @ 0955 AM 1.5 or 0.06 0.00 21.2 164.9 0
Memphis 1NE 11:59 PM 79 36 57 /28 68 / 47 10.9  (N) 7.9 31.8 mph 321° @ 0258 PM 1.8 or 0.07 0.01 19.6 150.1 0
Menard 2NW 11:59 PM 79 36 57 /28 68 / 47 11.7  (N) 9.3 26.3 mph 5° @ 0528 AM 1.8 or 0.07 0.02 10.8 73.1 0
Mertzon 3NNE 11:59 PM 79 36 57 /28 68 / 47 10.9  (NE) 8.4 25.7 mph 13° @ 0213 AM 1.8 or 0.07 0.00 13.1 89.4 0
Morton 1ENE 11:55 PM 79 36 57 /28 68 / 47 11.4  (NE) 8.1 25.6 mph 28° @ 0150 AM 2 or 0.08 0.00 18.7 136.8 0
Muleshoe 2SSW 11:55 PM 79 36 57 /28 68 / 47 10  (NE) 7.9 22 mph 23° @ 1030 AM 1.8 or 0.07 0.00 22.2 164.9 0
New Home 11:59 PM 79 36 57 /28 68 / 47 9.2  (NE) 7.6 22.8 mph 35° @ 1210 AM 1.8 or 0.07 0.00 17.5 126.9 0
Northfield 1S 11:55 PM 79 36 57 /28 68 / 47 10.2  (N) 7.1 27.6 mph 17° @ 0935 AM 2 or 0.08 0.00 18.7 140.8 0
O'Donnell 1N 11:55 PM 79 36 57 /28 68 / 47 10.8  (NE) 8 27 mph 29° @ 1250 AM 1.8 or 0.07 0.00 2.7 97.1 0
Odell 4ENE 11:59 PM 79 36 57 /28 68 / 47 10.4  (NW) 7.3 27.2 mph 10° @ 0942 AM 1.5 or 0.06 0.00 17.9 135.9 0
Olton 6S 11:55 PM 79 36 57 /28 68 / 47 12.5  (N) 10.3 24.1 mph 355° @ 1255 PM 1.8 or 0.07 0.00 20.7 153.5 0
Paducah 10SW 11:59 PM 79 36 57 /28 68 / 47 12.5  (N) 7.5 27.4 mph 9° @ 1017 AM 2.3 or 0.09 0.00 19.6 145.7 0
Palo Duro 4E (JA Ranch) 11:59 PM 79 36 57 /28 68 / 47 11.4  (N) 7.9 26.6 mph 2° @ 0953 AM 1.8 or 0.07 0.00 17.2 131.6 0
Palo Duro Canyon SP Floor 11:59 PM 79 36 57 /28 68 / 47 6.1  (W) 2.8 23.6 mph 356° @ 0501 PM 1.5 or 0.06 0.00 13.7 105.4 0
Palo Duro Canyon State Park Rim 11:59 PM 79 36 57 /28 68 / 47 10.2  (N) 5.6 25.2 mph 5° @ 0134 AM 1.8 or 0.07 0.00 15.3 117.1 0
Palo Duro Reservoir 1NW 11:59 PM 79 36 57 /28 68 / 47 14.5  (N) 10.5 27.4 mph 1° @ 1045 AM 1.8 or 0.07 0.00 13.2 106.5 0
Pampa 2E 11:55 PM 79 36 57 /28 68 / 47 14.4  (NW) 11.6 32.1 mph 354° @ 1105 AM 1.5 or 0.06 0.00 17.9 140.1 0
Panhandle 1SSW 11:59 PM 79 36 57 /28 68 / 47 12.7  (N) 10.4 26.5 mph 351° @ 0348 PM 1.5 or 0.06 0.00 17.4 135 0
Plains 3N 11:55 PM 79 36 57 /28 68 / 47 9.6  (NE) 7.8 23 mph 28° @ 0125 AM 1.8 or 0.07 0.00 18.1 130.1 0
Plainview 1S 11:59 PM 79 36 57 /28 68 / 47 11.2  (N) 8.7 25.2 mph 347° @ 1208 PM 1.8 or 0.07 0.00 21 156.4 0
Post 1NE 11:59 PM 79 36 57 /28 68 / 47 9.6  (NE) 6.1 27.4 mph 19° @ 1243 AM 1.8 or 0.07 0.00 14.1 102.3 0
Ralls 1SE 11:59 PM 79 36 57 /28 68 / 47 11.7  (N) 9.3 26.3 mph 7° @ 0543 AM 2 or 0.08 0.00 19 139.1 0
Reese Center 11:59 PM 79 36 57 /28 68 / 47 12.5  (NE) 7 28.5 mph 19° @ 0446 AM 2 or 0.08 0.00 19.5 142.2 0
Roaring Springs 3N 11:59 PM 79 36 57 /28 68 / 47 12.3  (N) 8.8 27.4 mph 342° @ 0502 AM 2 or 0.08 0.01 20.5 152.6 0
Romero 11SSW 11:59 PM 79 36 57 /28 68 / 47 12.2  (N) 9.4 29.1 mph 353° @ 0144 PM 1.5 or 0.06 0.00 11.8 92.3 0
Rotan 5W 11:59 PM 79 36 57 /28 68 / 47 10.5  (N) 8.4 28.9 mph 19° @ 1201 AM 1.5 or 0.06 0.00 16.6 119.1 0
San Angelo 7NW 11:55 PM 79 36 57 /28 68 / 47 7.8  (NE) 5.6 23.8 mph 3° @ 0305 AM 1.5 or 0.06 0.12 13 89.5 0
Seagraves 1SW 11:59 PM 79 36 57 /28 68 / 47 8.3  (NE) 6 26.3 mph 25° @ 1215 AM 1.8 or 0.07 0.00 14 100.1 0
Segovia 7SSW 11:59 PM 79 36 57 /28 68 / 47 12  (N) 9.1 27.2 mph 14° @ 0128 AM 2 or 0.08 0.00 15.8 104.6 0
Seminole 2NNE 11:55 PM 79 36 57 /28 68 / 47 9.3  (NE) 7.2 24.3 mph 31° @ 1205 AM 1.5 or 0.06 0.00 12.4 88 0
Seymour 3NW 11:55 PM 79 36 57 /28 68 / 47 10  (N) 7.2 24.8 mph 360° @ 1215 AM 1.5 or 0.06 0.00 12.7 94.3 0
Sierra Blanca 1SSE 11:59 PM 79 36 57 /28 68 / 47 16.8  (W) 13 30.8 mph 114° @ 0537 AM 3.6 or 0.14 0.00 21.4 142.5 0
Silverton 7ESE 11:55 PM 79 36 57 /28 68 / 47 13.7  (N) 10.4 26.1 mph 4° @ 0310 AM 1.8 or 0.07 0.00 19.5 147.1 0
Slaton 2NE 11:59 PM 79 36 57 /28 68 / 47 10  (NE) 7.9 25.2 mph 18° @ 1036 AM 1.8 or 0.07 0.00 19.4 141.2 0
Smyer 11:59 PM 79 36 57 /28 68 / 47 11.5  (NE) 9.5 24.9 mph 7° @ 0439 AM 2 or 0.08 0.00 20.5 149.7 0
Snyder 3E 11:55 PM 79 36 57 /28 68 / 47 11.1  (N) 5.1 29.7 mph 14° @ 1220 AM 1.8 or 0.07 0.00 11.3 80.9 0
Snyder 3SSW 11:59 PM 79 36 57 /28 68 / 47 10.4  (N) 7.1 30.3 mph 21° @ 0112 AM 1.8 or 0.07 0.00 11.8 83.9 0
South Plains 3ENE 11:59 PM 79 36 57 /28 68 / 47 11.9  (N) 9.3 27.7 mph 353° @ 0433 PM 1.8 or 0.07 0.00 19.5 145.5 0
Spur 1W 11:55 PM 79 36 57 /28 68 / 47 9.5  (NE) 8.1 23.2 mph 20° @ 1010 AM 1.8 or 0.07 0.00 16.8 123.1 0
St. Lawrence 5SW 11:59 PM 79 36 57 /28 68 / 47 12.8  (NE) 10.1 28.5 mph 35° @ 0218 AM 1.8 or 0.07 0.05 16.4 112.5 0
Stamford 5ESE 11:59 PM 79 36 57 /28 68 / 47 10.6  (N) 7.5 23.8 mph 359° @ 0937 AM 1.5 or 0.06 0.00 13.9 100.4 0
Sterling City 4WSW 11:59 PM 79 36 57 /28 68 / 47 8.4  (N) 6.2 24.7 mph 16° @ 1203 AM 1.3 or 0.05 0.09 9.3 64.6 0
Stinnett 1NNW 11:59 PM 79 36 57 /28 68 / 47 14  (N) 10.7 29.1 mph 8° @ 1222 PM 1.5 or 0.06 0.00 14.4 113.7 0
Stratford 4WNW 11:59 PM 79 36 57 /28 68 / 47 14.2  (N) 10.2 31.2 mph 4° @ 0631 AM 1.5 or 0.06 0.00 13.7 110.2 0
Sundown 8WSW 11:55 PM 79 36 57 /28 68 / 47 11  (NE) 7.6 23 mph 34° @ 0200 PM 2 or 0.08 0.00 17.1 123.9 0
Sweetwater 11SW 11:59 PM 79 36 57 /28 68 / 47 11.6  (N) 8 29.6 mph 24° @ 0118 AM 1.3 or 0.05 0.05 7.8 55.2 0
Tahoka 3NNE 11:59 PM 79 36 57 /28 68 / 47 10.6  (NE) 7.6 25.3 mph 24° @ 1204 AM 2 or 0.08 0.00 14.9 107.8 0
Tarzan 2WNW 11:59 PM 79 36 57 /28 68 / 47 10.3  (NE) 7.5 28.4 mph 26° @ 1238 AM 1.5 or 0.06 0.01 7.6 53.3 0
Tatum NM 2SW 11:55 PM 79 36 57 /28 68 / 47 11.8  (NE) 7.8 29.8 mph 38° @ 0135 PM 2.3 or 0.09 0.00 20.9 149.6 0
Throckmorton 1SW 11:59 PM 79 36 57 /28 68 / 47 8.5  (N) 4.9 22.4 mph 350° @ 0113 PM 1.5 or 0.06 0.01 18.3 133.3 0
Truscott 2SE 11:59 PM 79 36 57 /28 68 / 47 9.1  (N) 6.8 21.8 mph 8° @ 1112 AM 1.5 or 0.06 0.00 15.6 116.1 0
Tulia 2ENE 11:55 PM 79 36 57 /28 68 / 47 11.7  (N) 9 25.8 mph 358° @ 1035 AM 1.8 or 0.07 0.00 16.9 127 0
Turkey 2WSW 11:55 PM 79 36 57 /28 68 / 47 12.6  (NW) 9.8 25.3 mph 329° @ 1100 AM 2 or 0.08 0.00 16.7 126.3 0
Umbarger 3NNE 11:59 PM 79 36 57 /28 68 / 47 12  (N) 9.3 33.8 mph 15° @ 0405 PM 1.8 or 0.07 0.00 13.8 105.8 0
Van Horn 3ENE 11:59 PM 79 36 57 /28 68 / 47 15.8  (E) 11.7 31.6 mph 16° @ 0329 AM 2.8 or 0.11 0.00 18.6 124 0
Vega 4E 11:59 PM 79 36 57 /28 68 / 47 12.3  (N) 9.5 26.3 mph 358° @ 0305 PM 1.8 or 0.07 0.00 13.2 101.6 0
Vigo Park 11:59 PM 79 36 57 /28 68 / 47 10.8  (N) 7.3 27.8 mph 8° @ 0222 AM 1.5 or 0.06 0.00 16.8 126.9 0
Wall 2E 11:59 PM 79 36 57 /28 68 / 47 12.4  (NE) 10.2 28.2 mph 9° @ 0244 AM 1.8 or 0.07 0.05 10 68.8 0
Weinert 2NNE 11:59 PM 79 36 57 /28 68 / 47 9.4  (N) 7.1 24.4 mph 7° @ 1014 AM 1.5 or 0.06 0.00 14.1 103.7 0
Welch 11:59 PM 79 36 57 /28 68 / 47 8.7  (NE) 6.3 27.1 mph 27° @ 1211 AM 1.5 or 0.06 0.00 14.8 105.8 0
Wellington 6SE 11:59 PM 79 36 57 /28 68 / 47 13.5  (NW) 10.4 34 mph 1° @ 1018 AM 1.8 or 0.07 0.00 22.4 172.5 0
White River Lake 6NW 11:59 PM 79 36 57 /28 68 / 47 12.1  (N) 8.8 27.4 mph 11° @ 1102 AM 2 or 0.08 0.01 18.5 135 0
Wolfforth 6SSW 11:59 PM 79 36 57 /28 68 / 47 12.2  (NE) 9.3 28.5 mph 22° @ 1233 AM 2.3 or 0.09 0.00 19.8 143.4 0

WestTexas Mesonet Home    Site Map/Menu  National Weather Service Lubbock   Soil Data   Latest Observation Page   Previous  Date   Next Last